createdAt,value
2023-05-02T00:01:31.992Z,99906.38
2023-05-02T00:03:59.956Z,99751.28
2023-05-02T00:06:28.074Z,99820.63
2023-05-02T00:08:57.470Z,99867.53
2023-05-02T00:11:25.291Z,99752.78
2023-05-02T00:13:53.336Z,99869.97
2023-05-02T00:16:23.986Z,99968.56
2023-05-02T00:18:51.824Z,99867.66
2023-05-02T00:21:19.711Z,99871.47
2023-05-02T00:23:47.675Z,99770.84
2023-05-02T00:26:17.044Z,99621.97
2023-05-02T00:28:44.854Z,99938.13
2023-05-02T00:31:12.918Z,99968.75
2023-05-02T00:33:40.854Z,99931.78
2023-05-02T00:36:14.975Z,99803.91
2023-05-02T00:38:42.975Z,99953.41
2023-05-02T00:41:10.895Z,100067.19
2023-05-02T00:43:41.020Z,99967.06
2023-05-02T00:46:09.095Z,99944.06
2023-05-02T00:48:37.393Z,99941.34
2023-05-02T00:51:06.480Z,99699.38
2023-05-02T00:53:36.485Z,100042.00
2023-05-02T00:56:04.413Z,99947.44
2023-05-02T00:58:34.571Z,100052.25
2023-05-02T01:01:13.823Z,99971.47
2023-05-02T01:03:45.651Z,99783.59
2023-05-02T01:06:21.126Z,99940.41
2023-05-02T01:08:55.438Z,100088.47
2023-05-02T01:11:28.294Z,99952.56
2023-05-02T01:13:56.141Z,99838.78
2023-05-02T01:16:25.764Z,99765.22
2023-05-02T01:18:54.100Z,99945.38
2023-05-02T01:21:22.068Z,99733.63
2023-05-02T01:23:54.714Z,99932.88
2023-05-02T01:26:28.117Z,99831.88
2023-05-02T01:29:01.426Z,99845.63
2023-05-02T01:31:31.375Z,99829.94
2023-05-02T01:33:59.503Z,99783.78
2023-05-02T01:36:29.510Z,99844.94
2023-05-02T01:38:57.505Z,99884.81
2023-05-02T01:41:26.545Z,100095.38
2023-05-02T01:43:55.026Z,99841.81
2023-05-02T01:46:24.362Z,100108.16
2023-05-02T01:48:52.424Z,100007.41
2023-05-02T01:51:20.405Z,100100.72
2023-05-02T01:53:49.598Z,99841.56
2023-05-02T01:56:19.598Z,99815.91
2023-05-02T01:58:47.909Z,99714.63
2023-05-02T02:01:30.192Z,99713.31
2023-05-02T02:04:08.315Z,100031.47
2023-05-02T02:06:36.375Z,100229.72
2023-05-02T02:09:04.865Z,99907.75
2023-05-02T02:11:36.292Z,99980.59
2023-05-02T02:14:07.500Z,99795.00
2023-05-02T02:16:39.399Z,100138.44
2023-05-02T02:19:08.712Z,99964.78
2023-05-02T02:21:40.691Z,100071.94
2023-05-02T02:24:08.678Z,99963.47
2023-05-02T02:26:36.940Z,100134.53
2023-05-02T02:29:08.044Z,99869.00
2023-05-02T02:31:39.178Z,99664.91
2023-05-02T02:34:24.207Z,100249.19
2023-05-02T02:36:54.834Z,99669.28
2023-05-02T02:39:28.801Z,100043.63
2023-05-02T02:42:03.701Z,100178.06
2023-05-02T02:44:36.366Z,100014.41
2023-05-02T02:47:09.957Z,100065.41
2023-05-02T02:49:49.930Z,99942.88
2023-05-02T02:52:23.045Z,100195.16
2023-05-02T02:54:53.261Z,100046.44
2023-05-02T02:57:37.925Z,99884.16
2023-05-02T03:00:10.781Z,100058.00
2023-05-02T03:02:40.239Z,99806.84
2023-05-02T03:05:08.382Z,100153.63
2023-05-02T03:07:37.013Z,99995.47
2023-05-02T03:10:06.004Z,99933.25
2023-05-02T03:12:34.135Z,100078.81
2023-05-02T03:15:11.245Z,99970.91
2023-05-02T03:17:40.501Z,99914.16
2023-05-02T03:20:09.204Z,99988.44
2023-05-02T03:22:36.984Z,99984.75
2023-05-02T03:25:05.195Z,100240.81
2023-05-02T03:27:33.011Z,100129.69
2023-05-02T03:30:01.076Z,100017.41
2023-05-02T03:32:44.031Z,100121.25
2023-05-02T03:35:13.540Z,100101.94
2023-05-02T03:37:41.479Z,100179.06
2023-05-02T03:40:10.176Z,100085.75
2023-05-02T03:42:41.107Z,99976.22
2023-05-02T03:45:09.627Z,100104.06
2023-05-02T03:47:37.660Z,99997.41
2023-05-02T03:50:06.374Z,100213.59
2023-05-02T03:52:38.063Z,99639.81
2023-05-02T03:55:07.917Z,99934.97
2023-05-02T03:57:35.770Z,99865.53
2023-05-02T04:00:03.939Z,99933.44
2023-05-02T04:02:32.205Z,100151.28
2023-05-02T04:05:00.240Z,100145.59
2023-05-02T04:07:28.602Z,100093.13
2023-05-02T04:09:57.949Z,99968.63
2023-05-02T04:12:25.957Z,100003.72
2023-05-02T04:14:58.630Z,99908.06
2023-05-02T04:17:47.348Z,99916.56
2023-05-02T04:20:17.060Z,100229.47
2023-05-02T04:22:48.053Z,99963.22
2023-05-02T04:25:18.191Z,99920.63
2023-05-02T04:27:52.092Z,100019.56
2023-05-02T04:30:22.385Z,99918.59
2023-05-02T04:32:55.821Z,99975.19
2023-05-02T04:35:26.754Z,99966.41
2023-05-02T04:37:57.285Z,100093.81
2023-05-02T04:40:31.793Z,100012.75
2023-05-02T04:43:02.434Z,100229.81
2023-05-02T04:45:30.622Z,100034.22
2023-05-02T04:48:00.456Z,100026.94
2023-05-02T04:50:29.609Z,100052.34
2023-05-02T04:52:57.506Z,100298.47
2023-05-02T04:55:26.672Z,100201.47
2023-05-02T04:57:54.593Z,100068.75
2023-05-02T05:00:22.955Z,100293.47
2023-05-02T05:02:59.078Z,100060.22
2023-05-02T05:05:28.196Z,100238.66
2023-05-02T05:07:56.518Z,99897.56
2023-05-02T05:10:24.549Z,99988.97
2023-05-02T05:12:54.706Z,100357.31
2023-05-02T05:15:24.162Z,100031.34
2023-05-02T05:17:52.227Z,100229.78
2023-05-02T05:20:20.071Z,100399.44
2023-05-02T05:22:47.931Z,100258.84
2023-05-02T05:25:16.023Z,100035.41
2023-05-02T05:27:44.479Z,100316.94
2023-05-02T05:30:13.963Z,100139.00
2023-05-02T05:32:41.872Z,99813.59
2023-05-02T05:35:10.467Z,100171.03
2023-05-02T05:37:39.582Z,100309.91
2023-05-02T05:40:09.078Z,100258.91
2023-05-02T05:42:37.301Z,100286.69
2023-05-02T05:45:05.781Z,100028.59
2023-05-02T05:47:35.058Z,100109.72
2023-05-02T05:50:03.551Z,100262.56
2023-05-02T05:52:31.544Z,100389.50
2023-05-02T05:54:59.732Z,100151.31
2023-05-02T05:57:27.605Z,100051.19
2023-05-02T05:59:55.989Z,100228.22
2023-05-02T06:02:23.920Z,100067.88
2023-05-02T06:04:53.580Z,100379.66
2023-05-02T06:07:21.632Z,100155.38
2023-05-02T06:09:49.675Z,100216.38
2023-05-02T06:12:17.683Z,100388.81
2023-05-02T06:14:45.772Z,100241.66
2023-05-02T06:17:13.818Z,100229.38
2023-05-02T06:19:41.843Z,100330.00
2023-05-02T06:22:13.103Z,100357.34
2023-05-02T06:24:40.948Z,100328.28
2023-05-02T06:27:08.820Z,100136.28
2023-05-02T06:29:36.799Z,100101.97
2023-05-02T06:32:05.336Z,100210.00
2023-05-02T06:34:33.653Z,100218.94
2023-05-02T06:37:01.450Z,100225.13
2023-05-02T06:39:30.891Z,100280.09
2023-05-02T06:41:59.102Z,100184.00
2023-05-02T06:44:27.020Z,100373.41
2023-05-02T06:46:56.304Z,100231.16
2023-05-02T06:49:24.190Z,99993.19
2023-05-02T06:51:52.117Z,100223.28
2023-05-02T06:54:21.785Z,100220.38
2023-05-02T06:56:51.116Z,100240.81
2023-05-02T06:59:19.097Z,100458.47
2023-05-02T07:01:46.871Z,100218.03
2023-05-02T07:04:14.766Z,100373.13
2023-05-02T07:06:42.765Z,100446.09
2023-05-02T07:09:10.689Z,100459.22
2023-05-02T07:11:38.629Z,100235.59
2023-05-02T07:14:08.543Z,100393.09
2023-05-02T07:16:36.456Z,100116.00
2023-05-02T07:19:04.798Z,100126.84
2023-05-02T07:21:32.689Z,100273.91
2023-05-02T07:24:00.840Z,100270.94
2023-05-02T07:26:29.324Z,100324.56
2023-05-02T07:28:57.136Z,100283.38
2023-05-02T07:31:26.592Z,100245.59
2023-05-02T07:33:54.566Z,100369.78
2023-05-02T07:36:22.701Z,100375.28
2023-05-02T07:38:50.583Z,100368.19
2023-05-02T07:41:20.913Z,100409.75
2023-05-02T07:43:48.812Z,100568.28
2023-05-02T07:46:16.652Z,100328.47
2023-05-02T07:48:45.973Z,100293.75
2023-05-02T07:51:14.197Z,100469.72
2023-05-02T07:53:42.100Z,100239.25
2023-05-02T07:56:10.066Z,100374.31
2023-05-02T07:58:37.987Z,100265.88
2023-05-02T08:01:06.221Z,100223.50
2023-05-02T08:03:34.169Z,100511.91
2023-05-02T08:06:04.172Z,100518.00
2023-05-02T08:08:32.289Z,100532.34
2023-05-02T08:11:00.112Z,100253.63
2023-05-02T08:13:28.544Z,100258.47
2023-05-02T08:15:58.145Z,100282.22
2023-05-02T08:18:26.107Z,100287.38
2023-05-02T08:20:54.140Z,100313.75
2023-05-02T08:23:23.406Z,100495.16
2023-05-02T08:25:51.395Z,100596.69
2023-05-02T08:28:19.769Z,100458.75
2023-05-02T08:30:47.882Z,100371.13
2023-05-02T08:33:19.090Z,100314.75
2023-05-02T08:35:46.985Z,100401.88
2023-05-02T08:38:14.954Z,100323.81
2023-05-02T08:40:44.377Z,100171.81
2023-05-02T08:43:12.372Z,100455.91
2023-05-02T08:45:41.177Z,100453.56
2023-05-02T08:48:11.164Z,100310.69
2023-05-02T08:50:39.527Z,100282.66
2023-05-02T08:53:07.971Z,100355.31
2023-05-02T08:55:40.064Z,100538.44
2023-05-02T08:58:09.496Z,100442.84
2023-05-02T09:00:39.681Z,100413.63
2023-05-02T09:03:08.511Z,100243.66
2023-05-02T09:05:41.234Z,100623.63
2023-05-02T09:08:09.270Z,100640.16
2023-05-02T09:10:37.721Z,100605.00
2023-05-02T09:13:35.273Z,100618.03
2023-05-02T09:16:04.076Z,100456.16
2023-05-02T09:18:33.000Z,100598.31
2023-05-02T09:21:01.356Z,100648.31
2023-05-02T09:23:40.566Z,100542.56
2023-05-02T09:26:16.011Z,100675.53
2023-05-02T09:28:53.584Z,100426.13
2023-05-02T09:31:43.327Z,100243.63
2023-05-02T09:34:14.618Z,100642.19
2023-05-02T09:36:42.903Z,100282.97
2023-05-02T09:39:14.036Z,100369.09
2023-05-02T09:41:42.837Z,100622.13
2023-05-02T09:44:13.004Z,100479.03
2023-05-02T09:46:43.744Z,100381.66
2023-05-02T09:49:11.897Z,100450.72
2023-05-02T09:51:39.720Z,100433.44
2023-05-02T09:54:07.870Z,100548.50
2023-05-02T09:56:52.798Z,100320.72
2023-05-02T09:59:21.960Z,100437.94
2023-05-02T10:01:56.315Z,100469.28
2023-05-02T10:04:24.601Z,100594.03
2023-05-02T10:06:52.814Z,100215.22
2023-05-02T10:09:21.769Z,100500.63
2023-05-02T10:11:53.096Z,100719.88
2023-05-02T10:14:23.072Z,100476.22
2023-05-02T10:16:55.004Z,100420.19
2023-05-02T10:19:25.456Z,100563.44
2023-05-02T10:21:53.266Z,100568.28
2023-05-02T10:24:21.242Z,100539.34
2023-05-02T10:26:49.273Z,100637.63
2023-05-02T10:29:17.964Z,100647.28
2023-05-02T10:31:51.155Z,100381.78
2023-05-02T10:34:20.675Z,100631.63
2023-05-02T10:36:50.083Z,100807.78
2023-05-02T10:39:19.936Z,100485.94
2023-05-02T10:41:48.261Z,100693.88
2023-05-02T10:44:16.863Z,100575.03
2023-05-02T10:46:47.627Z,100537.41
2023-05-02T10:49:17.272Z,100517.59
2023-05-02T10:51:45.357Z,100653.81
2023-05-02T10:54:22.847Z,100695.97
2023-05-02T10:57:05.937Z,100721.19
2023-05-02T10:59:35.881Z,100629.41
2023-05-02T11:02:06.829Z,100678.44
2023-05-02T11:05:02.890Z,100696.66
2023-05-02T11:07:31.825Z,100604.91
2023-05-02T11:10:28.775Z,100705.16
2023-05-02T11:12:57.619Z,100475.91
2023-05-02T11:15:56.936Z,100708.16
2023-05-02T11:18:25.248Z,100657.53
2023-05-02T11:20:55.089Z,100407.28
2023-05-02T11:23:26.309Z,100708.03
2023-05-02T11:25:56.303Z,100429.47
2023-05-02T11:28:45.235Z,100616.84
2023-05-02T11:32:04.566Z,100490.50
2023-05-02T11:34:44.489Z,100696.59
2023-05-02T11:37:15.416Z,100624.06
2023-05-02T11:39:43.321Z,100567.81
2023-05-02T11:42:11.102Z,100626.94
2023-05-02T11:44:56.669Z,100492.31
2023-05-02T11:47:24.609Z,100423.69
2023-05-02T11:49:52.442Z,100583.00
2023-05-02T11:52:21.660Z,100357.28
2023-05-02T11:54:49.682Z,100601.88
2023-05-02T11:57:17.485Z,100731.50
2023-05-02T11:59:52.321Z,100480.97
2023-05-02T12:02:20.239Z,100425.38
2023-05-02T12:04:48.015Z,100520.81
2023-05-02T12:07:15.882Z,100693.38
2023-05-02T12:09:54.476Z,100687.47
2023-05-02T12:12:22.401Z,100421.38
2023-05-02T12:15:05.414Z,100421.22
2023-05-02T12:17:41.909Z,100748.34
2023-05-02T12:20:38.585Z,100753.44
2023-05-02T12:23:24.472Z,100554.41
2023-05-02T12:26:28.692Z,100312.28
2023-05-02T12:32:08.155Z,100356.72
2023-05-02T12:34:36.485Z,100304.00
2023-05-02T12:37:04.452Z,100551.94
2023-05-02T12:39:52.896Z,100596.31
2023-05-02T12:42:25.459Z,100738.53
2023-05-02T12:45:33.854Z,100584.53
2023-05-02T12:48:21.763Z,100401.09
2023-05-02T12:50:55.999Z,100465.56
2023-05-02T12:56:54.926Z,100453.09
2023-05-02T12:59:48.729Z,100764.22
2023-05-02T13:08:28.544Z,100779.19
2023-05-02T13:10:56.234Z,100739.44
2023-05-02T13:13:24.385Z,100768.56
2023-05-02T13:15:54.801Z,100677.44
2023-05-02T13:18:24.237Z,100661.59
2023-05-02T13:20:55.385Z,100736.31
2023-05-02T13:23:23.997Z,100655.38
2023-05-02T13:37:33.425Z,100594.38
2023-05-02T13:40:40.005Z,100731.16
2023-05-02T13:44:05.209Z,100440.13
2023-05-02T13:48:05.926Z,100805.78
2023-05-02T14:28:42.379Z,100310.63
2023-05-02T14:31:55.459Z,100536.72
2023-05-02T14:34:26.795Z,100754.94
2023-05-02T14:36:54.793Z,100682.72
2023-05-02T14:39:22.428Z,100733.91
2023-05-02T14:41:50.173Z,100753.13
2023-05-02T14:44:18.313Z,100774.03
2023-05-02T14:46:47.360Z,100783.72
2023-05-02T14:49:15.259Z,100766.06
2023-05-02T14:51:47.189Z,100778.28
2023-05-02T14:54:16.785Z,100766.88
2023-05-02T14:56:44.533Z,100786.94
2023-05-02T14:59:12.325Z,100777.06
2023-05-02T15:01:40.207Z,100779.88
2023-05-02T15:07:56.462Z,100770.53
2023-05-02T15:10:24.081Z,100767.97
2023-05-02T15:12:51.805Z,100769.00
2023-05-02T15:15:19.438Z,100778.88
2023-05-02T15:17:47.073Z,100696.59
2023-05-02T15:20:14.668Z,100780.81
2023-05-02T15:22:43.541Z,100737.19
2023-05-02T15:25:12.630Z,100764.78
2023-05-02T15:27:40.282Z,100774.50
2023-05-02T15:30:09.458Z,100741.19
2023-05-02T15:32:37.522Z,100757.91
2023-05-02T15:35:06.568Z,100723.94
2023-05-02T15:37:34.219Z,100755.34
2023-05-02T15:40:04.428Z,100751.75
2023-05-02T15:42:36.723Z,100752.72
2023-05-02T15:45:05.061Z,100772.53
2023-05-02T15:47:35.091Z,100741.94
2023-05-02T15:50:03.704Z,100697.44
2023-05-02T15:52:31.506Z,100770.72
2023-05-02T15:55:09.064Z,100723.28
2023-05-02T15:57:38.122Z,100680.84
2023-05-02T16:00:07.063Z,100784.91
2023-05-02T16:02:35.140Z,100780.59
2023-05-02T16:05:02.812Z,100766.78
2023-05-02T16:07:30.611Z,100761.72
2023-05-02T16:09:58.219Z,100788.00
2023-05-02T16:12:26.282Z,100798.00
2023-05-02T16:14:55.489Z,100809.38
2023-05-02T16:17:25.137Z,100630.75
2023-05-02T16:19:52.990Z,100776.00
2023-05-02T16:22:20.797Z,100701.09
2023-05-02T16:24:52.733Z,100560.22
2023-05-02T16:27:20.661Z,100675.59
2023-05-02T16:29:51.265Z,100753.84
2023-05-02T16:32:20.529Z,100792.28
2023-05-02T16:34:48.619Z,100767.78
2023-05-02T16:37:16.998Z,100718.34
2023-05-02T16:39:48.053Z,100703.16
2023-05-02T16:42:15.694Z,100704.06
2023-05-02T16:44:43.416Z,100760.78
2023-05-02T16:47:11.157Z,100794.03
2023-05-02T16:49:40.295Z,100794.03
2023-05-02T16:52:07.942Z,100795.91
2023-05-02T16:54:37.412Z,100805.59
2023-05-02T16:57:05.487Z,100814.66
2023-05-02T16:59:33.479Z,100802.28
2023-05-02T17:02:01.288Z,100806.78
2023-05-02T17:04:29.139Z,100806.78
2023-05-02T17:06:58.107Z,100807.75
2023-05-02T17:09:26.389Z,100801.69
2023-05-02T17:11:55.096Z,100701.38
2023-05-02T17:14:23.906Z,100668.38
2023-05-02T17:16:52.510Z,100812.47
2023-05-02T17:19:21.451Z,100728.81
2023-05-02T17:21:52.033Z,100787.19
2023-05-02T17:24:21.063Z,100801.25
2023-05-02T17:26:48.640Z,100744.41
2023-05-02T17:29:17.043Z,100810.84
2023-05-02T17:31:45.663Z,100762.38
2023-05-02T17:34:13.306Z,100811.75
2023-05-02T17:36:41.980Z,100693.09
2023-05-02T17:39:10.294Z,100816.28
2023-05-02T17:41:39.339Z,100795.44
2023-05-02T17:44:07.732Z,100814.69
2023-05-02T17:46:35.529Z,100826.19
2023-05-02T17:49:04.435Z,100803.53
2023-05-02T17:51:33.651Z,100799.31
2023-05-02T17:54:02.550Z,100742.50
2023-05-02T17:56:30.551Z,100837.81
2023-05-02T17:59:00.328Z,100832.66
2023-05-02T18:01:28.070Z,100701.59
2023-05-02T18:03:55.849Z,100828.44
2023-05-02T18:06:25.374Z,100773.38
2023-05-02T18:08:53.338Z,100667.81
2023-05-02T18:11:23.561Z,100844.41
2023-05-02T18:13:51.384Z,100829.66
2023-05-02T18:16:20.530Z,100845.44
2023-05-02T18:18:48.331Z,100844.53
2023-05-02T18:21:22.342Z,100812.22
2023-05-02T18:23:50.026Z,100848.97
2023-05-02T18:26:17.623Z,100854.25
2023-05-02T18:28:46.747Z,100840.25
2023-05-02T18:31:21.996Z,100849.06
2023-05-02T18:33:49.648Z,100713.44
2023-05-02T18:36:25.067Z,100859.59
2023-05-02T18:38:52.759Z,100819.34
2023-05-02T18:41:21.507Z,100848.22
2023-05-02T18:43:49.325Z,100857.88
2023-05-02T18:46:17.025Z,100856.13
2023-05-02T18:48:46.330Z,100864.03
2023-05-02T18:51:14.178Z,100860.56
2023-05-02T18:53:42.193Z,100840.47
2023-05-02T18:56:13.717Z,100869.34
2023-05-02T18:58:41.986Z,100821.19
2023-05-02T19:01:14.747Z,100876.38
2023-05-02T19:03:43.231Z,100864.13
2023-05-02T19:06:12.519Z,100873.75
2023-05-02T19:08:40.856Z,100867.63
2023-05-02T19:11:09.049Z,100810.72
2023-05-02T19:13:37.028Z,100873.78
2023-05-02T19:16:04.815Z,100876.41
2023-05-02T19:18:32.580Z,100869.41
2023-05-02T19:21:00.702Z,100881.69
2023-05-02T19:23:29.687Z,100865.91
2023-05-02T19:25:57.588Z,100912.31
2023-05-02T19:28:25.283Z,100885.13
2023-05-02T19:30:54.657Z,100890.41
2023-05-02T19:33:22.290Z,100879.88
2023-05-02T19:35:50.373Z,100906.16
2023-05-02T19:38:18.368Z,100907.91
2023-05-02T19:40:47.418Z,100915.78
2023-05-02T19:43:15.154Z,100887.72
2023-05-02T19:45:47.128Z,100906.06
2023-05-02T19:48:16.388Z,100873.63
2023-05-02T19:50:44.191Z,100808.78
2023-05-02T19:53:12.002Z,100860.47
2023-05-02T19:55:48.690Z,100928.78
2023-05-02T19:58:25.934Z,100853.22
2023-05-02T20:00:53.822Z,100787.63
2023-05-02T20:03:22.310Z,100927.91
2023-05-02T20:05:50.191Z,100912.97
2023-05-02T20:08:18.102Z,100945.38
2023-05-02T20:10:47.587Z,100878.66
2023-05-02T20:13:15.265Z,100930.47
2023-05-02T20:15:43.087Z,100848.00
2023-05-02T20:18:10.739Z,100926.03
2023-05-02T20:20:51.378Z,100940.94
2023-05-02T20:23:24.134Z,100906.59
2023-05-02T20:25:58.671Z,100937.25
2023-05-02T20:28:26.976Z,100935.59
2023-05-02T20:30:54.706Z,100948.69
2023-05-02T20:36:00.727Z,100941.66
2023-05-02T20:38:29.968Z,100950.38
2023-05-02T20:40:59.054Z,100895.91
2023-05-02T20:43:28.858Z,100923.97
2023-05-02T20:45:56.971Z,100924.84
2023-05-02T20:48:25.592Z,100935.28
2023-05-02T20:50:56.235Z,100940.56
2023-05-02T20:53:36.856Z,100958.97
2023-05-02T20:56:09.994Z,100761.47
2023-05-02T20:58:38.321Z,100842.03
2023-05-02T21:01:06.917Z,100604.53
2023-05-02T21:03:55.368Z,100539.38
2023-05-02T21:06:23.089Z,100778.00
2023-05-02T21:08:51.247Z,100971.91
2023-05-02T21:11:20.585Z,100917.47
2023-05-02T21:13:49.358Z,100974.50
2023-05-02T21:16:17.641Z,100927.97
2023-05-02T21:18:45.438Z,100972.66
2023-05-02T21:21:13.333Z,100826.06
2023-05-02T21:23:41.152Z,100969.03
2023-05-02T21:26:08.991Z,100895.94
2023-05-02T21:28:38.988Z,100961.00
2023-05-02T21:31:07.329Z,100970.75
2023-05-02T21:33:35.674Z,100916.25
2023-05-02T21:36:03.328Z,100947.66
2023-05-02T21:38:33.159Z,101007.31
2023-05-02T21:41:02.633Z,101064.91
2023-05-02T21:43:31.669Z,100927.47
2023-05-02T21:46:01.037Z,100951.88
2023-05-02T21:48:28.804Z,100982.72
2023-05-02T21:50:56.785Z,100980.75
2023-05-02T21:53:24.474Z,100986.16
2023-05-02T21:55:53.078Z,100987.88
2023-05-02T21:58:20.687Z,100985.22
2023-05-02T22:00:48.485Z,100982.56
2023-05-02T22:03:17.587Z,100984.22
2023-05-02T22:05:45.436Z,101026.88
2023-05-02T22:08:13.543Z,101108.84
2023-05-02T22:10:42.902Z,100985.84
2023-05-02T22:13:12.186Z,100972.53
2023-05-02T22:15:42.375Z,100968.84
2023-05-02T22:18:10.375Z,100991.84
2023-05-02T22:20:39.571Z,100997.06
2023-05-02T22:23:07.178Z,100942.38
2023-05-02T22:25:35.742Z,100999.63
2023-05-02T22:28:06.728Z,100941.38
2023-05-02T22:30:34.469Z,100970.44
2023-05-02T22:33:05.160Z,100948.47
2023-05-02T22:35:32.854Z,101001.28
2023-05-02T22:38:02.162Z,100999.16
2023-05-02T22:40:30.353Z,100851.69
2023-05-02T22:42:58.061Z,101004.63
2023-05-02T22:45:26.760Z,101006.31
2023-05-02T22:47:54.618Z,101011.50
2023-05-02T22:50:22.530Z,101007.06
2023-05-02T22:52:51.097Z,101007.03
2023-05-02T22:55:20.524Z,101007.81
2023-05-02T22:57:48.334Z,100980.50
2023-05-02T23:00:16.923Z,101006.88
2023-05-02T23:02:45.025Z,101002.47
2023-05-02T23:05:12.717Z,100999.81
2023-05-02T23:07:40.493Z,100998.88
2023-05-02T23:10:10.003Z,100997.13
2023-05-02T23:12:39.347Z,100996.00
2023-05-02T23:15:08.036Z,100968.63
2023-05-02T23:17:38.236Z,100982.91
2023-05-02T23:20:07.793Z,100983.69
2023-05-02T23:22:36.437Z,100992.50
2023-05-02T23:25:04.122Z,100990.72
2023-05-02T23:27:33.825Z,100996.75
2023-05-02T23:30:03.154Z,100992.38
2023-05-02T23:32:31.069Z,100984.31
2023-05-02T23:34:58.894Z,100995.81
2023-05-02T23:37:28.055Z,100976.41
2023-05-02T23:39:57.608Z,100995.72
2023-05-02T23:42:25.518Z,100991.28
2023-05-02T23:44:55.257Z,100987.78
2023-05-02T23:47:24.595Z,100982.47
2023-05-02T23:49:52.517Z,100987.72
2023-05-02T23:52:20.226Z,100985.88
2023-05-02T23:54:48.560Z,100984.97
2023-05-02T23:57:16.434Z,100983.19
2023-05-02T23:59:44.243Z,100957.25
